Time;durP1;ratioP1;P1;durP2;ratioP2;P2;SDS_P1;SDS_P2;PMS_P1;PMS_P2;Temp;Humidity;BMP_temperature;BMP_pressure;BME280_temperature;BME280_humidity;BME280_pressure;Samples;Min_cycle;Max_cycle;Signal;HPM_P1;HPM_P2
2024/04/04 00:09:02;;;;;;;1.27;0.35;;;2.40;99.90;;;;;;20387749;29;20032;-37
2024/04/04 00:19:05;;;;;;;1.10;0.32;;;2.30;99.90;;;;;;20428729;29;20475;-37
2024/04/04 00:29:06;;;;;;;0.43;0.22;;;2.30;99.90;;;;;;20427602;29;20051;-38
2024/04/04 00:39:08;;;;;;;0.30;0.10;;;2.20;99.90;;;;;;20409800;29;20040;-37
2024/04/04 00:49:10;;;;;;;0.95;0.30;;;2.20;99.90;;;;;;20400181;29;20044;-39
2024/04/04 00:59:13;;;;;;;1.95;0.30;;;2.20;99.90;;;;;;20383636;29;20349;-38
2024/04/04 01:09:16;;;;;;;1.58;0.30;;;2.30;99.90;;;;;;20383816;29;20099;-41
2024/04/04 01:19:18;;;;;;;1.42;0.20;;;2.50;99.90;;;;;;20369668;29;20040;-38
2024/04/04 01:29:19;;;;;;;1.40;0.30;;;2.90;99.90;;;;;;20389924;29;20403;-37
2024/04/04 01:39:21;;;;;;;1.05;0.20;;;2.80;99.90;;;;;;20383524;29;20042;-38
2024/04/04 01:49:23;;;;;;;1.98;0.25;;;2.70;99.90;;;;;;20349571;29;20048;-37
2024/04/04 01:59:25;;;;;;;2.45;0.20;;;2.40;99.90;;;;;;20341218;29;20039;-37
2024/04/04 02:09:28;;;;;;;0.55;0.10;;;2.30;99.90;;;;;;20371820;29;20777;-38
2024/04/04 02:19:30;;;;;;;0.82;0.00;;;2.20;99.90;;;;;;20342427;29;20064;-37
2024/04/04 02:29:31;;;;;;;0.88;0.10;;;2.90;99.90;;;;;;20419065;29;20479;-37
2024/04/04 02:39:33;;;;;;;1.75;0.20;;;3.10;99.90;;;;;;20401063;29;20479;-37
2024/04/04 02:49:35;;;;;;;2.17;0.17;;;3.00;99.90;;;;;;20353665;29;20064;-37
2024/04/04 02:59:37;;;;;;;0.30;0.00;;;2.60;99.90;;;;;;20416666;29;20594;-37
2024/04/04 03:09:39;;;;;;;0.10;0.00;;;2.50;99.90;;;;;;20415939;29;20050;-38
2024/04/04 03:19:40;;;;;;;0.80;0.00;;;2.50;99.90;;;;;;20370375;29;20064;-37
2024/04/04 03:29:42;;;;;;;6.22;0.32;;;2.60;99.90;;;;;;20323819;29;20052;-37
2024/04/04 03:39:47;;;;;;;1.02;0.00;;;2.80;99.90;;;;;;20378782;29;20036;-38
2024/04/04 03:49:49;;;;;;;0.20;0.05;;;2.60;99.90;;;;;;20388391;29;20124;-37
2024/04/04 03:59:51;;;;;;;0.10;0.00;;;2.50;99.90;;;;;;20340406;29;20057;-37
2024/04/04 04:09:52;;;;;;;0.00;0.00;;;2.50;99.90;;;;;;20353321;29;20388;-37
2024/04/04 04:19:54;;;;;;;0.22;0.10;;;2.50;99.90;;;;;;20353106;29;20063;-37
2024/04/04 04:29:56;;;;;;;3.10;0.00;;;2.40;99.90;;;;;;20428069;29;20051;-37
2024/04/04 04:39:57;;;;;;;0.20;0.08;;;2.40;99.90;;;;;;20427027;29;20046;-37
2024/04/04 04:49:59;;;;;;;1.85;0.20;;;2.10;99.90;;;;;;20362153;29;20031;-37
2024/04/04 05:00:01;;;;;;;0.65;0.10;;;2.10;99.90;;;;;;20399385;29;20100;-37
2024/04/04 05:10:04;;;;;;;0.30;0.00;;;2.20;99.90;;;;;;20377428;29;20047;-37
2024/04/04 05:20:06;;;;;;;1.17;0.10;;;2.20;99.90;;;;;;20346696;29;20039;-38
2024/04/04 05:30:15;;;;;;;0.00;0.00;;;2.30;99.90;;;;;;20369352;29;20115;-37
2024/04/04 05:40:17;;;;;;;0.10;0.10;;;2.50;99.90;;;;;;20392270;29;20035;-37
2024/04/04 05:50:23;;;;;;;1.80;0.10;;;2.60;99.90;;;;;;20368047;29;20083;-37
2024/04/04 06:00:25;;;;;;;0.93;0.30;;;2.80;99.90;;;;;;20420703;29;20040;-37
2024/04/04 06:10:30;;;;;;;0.15;0.10;;;2.90;99.90;;;;;;20413826;29;20582;-38
2024/04/04 06:20:32;;;;;;;1.27;0.20;;;3.10;99.90;;;;;;20351355;29;20036;-38
2024/04/04 06:30:35;;;;;;;0.98;0.20;;;3.20;99.90;;;;;;20305659;29;20112;-38
2024/04/04 06:40:39;;;;;;;1.92;0.25;;;3.60;99.90;;;;;;20274325;29;20032;-38
2024/04/04 06:50:41;;;;;;;3.60;0.50;;;4.10;99.90;;;;;;20328284;29;20293;-38
2024/04/04 07:00:43;;;;;;;1.80;0.20;;;5.50;99.90;;;;;;20336462;29;20222;-38
2024/04/04 07:10:48;;;;;;;0.70;0.20;;;7.00;99.90;;;;;;20295184;29;20028;-38
2024/04/04 07:20:53;;;;;;;0.55;0.32;;;8.20;99.90;;;;;;20332473;29;20040;-40
2024/04/04 07:30:55;;;;;;;1.50;0.30;;;9.00;99.90;;;;;;20324553;29;20123;-40
2024/04/04 07:41:04;;;;;;;2.47;0.50;;;9.80;99.90;;;;;;20325677;29;20032;-40
2024/04/04 07:51:19;;;;;;;2.47;0.50;;;10.50;99.90;;;;;;20340078;29;20055;-39
2024/04/04 08:01:24;;;;;;;3.25;0.70;;;11.00;99.90;;;;;;20337919;29;20079;-39
2024/04/04 08:11:26;;;;;;;2.17;0.50;;;11.30;99.90;;;;;;20338894;29;20040;-39
2024/04/04 08:21:28;;;;;;;2.28;0.70;;;11.70;99.90;;;;;;20345624;29;20096;-39
2024/04/04 08:31:29;;;;;;;2.78;1.10;;;12.20;99.90;;;;;;20347220;29;20032;-40
2024/04/04 08:41:32;;;;;;;1.80;0.80;;;12.10;99.90;;;;;;20275019;29;20044;-39
2024/04/04 08:51:34;;;;;;;2.72;1.00;;;12.40;99.90;;;;;;20315965;29;20060;-39
2024/04/04 09:01:36;;;;;;;4.78;1.02;;;13.00;99.90;;;;;;20339282;29;20060;-41
2024/04/04 09:11:37;;;;;;;2.22;1.00;;;13.20;99.90;;;;;;20344259;29;20036;-41
2024/04/04 09:21:43;;;;;;;2.25;0.90;;;13.50;99.90;;;;;;20338780;29;20048;-40
2024/04/04 09:31:46;;;;;;;2.50;1.08;;;13.70;99.90;;;;;;20350228;29;20386;-40
2024/04/04 09:41:53;;;;;;;2.80;1.20;;;13.80;99.90;;;;;;20340797;29;20032;-42
2024/04/04 09:51:55;;;;;;;3.70;1.50;;;14.50;99.90;;;;;;20361512;29;20439;-41
2024/04/04 10:02:04;;;;;;;3.97;1.90;;;14.60;99.90;;;;;;20383579;29;20040;-41
2024/04/04 10:12:10;;;;;;;5.35;1.95;;;15.00;99.90;;;;;;20346672;29;20047;-40
2024/04/04 10:22:24;;;;;;;4.57;2.10;;;15.80;99.90;;;;;;20331372;29;20040;-42
2024/04/04 10:32:30;;;;;;;8.02;3.45;;;15.50;99.90;;;;;;20259551;29;20079;-41
2024/04/04 10:42:32;;;;;;;6.97;3.63;;;14.80;99.90;;;;;;20258260;29;20040;-39
2024/04/04 10:52:34;;;;;;;5.90;4.07;;;14.00;99.90;;;;;;20260648;29;20032;-41
2024/04/04 11:02:36;;;;;;;6.47;3.63;;;13.70;99.90;;;;;;20243633;29;20037;-40
2024/04/04 11:12:38;;;;;;;6.43;3.67;;;13.60;99.90;;;;;;20260023;29;20080;-40
2024/04/04 11:22:41;;;;;;;9.90;4.25;;;13.60;99.90;;;;;;20264719;29;20131;-42
2024/04/04 11:32:43;;;;;;;8.52;3.92;;;14.60;99.90;;;;;;20333917;29;20184;-41
2024/04/04 11:42:45;;;;;;;4.47;3.63;;;14.50;99.90;;;;;;20332100;29;20087;-42
2024/04/04 11:52:47;;;;;;;5.03;3.40;;;15.30;99.90;;;;;;20338179;29;20091;-42
2024/04/04 12:02:50;;;;;;;9.27;4.07;;;15.50;99.90;;;;;;20336590;29;20039;-42
2024/04/04 12:12:56;;;;;;;4.68;3.75;;;15.00;99.90;;;;;;20332584;29;20036;-40
2024/04/04 12:22:58;;;;;;;6.32;3.90;;;14.70;99.90;;;;;;20333938;29;20044;-43
2024/04/04 12:33:00;;;;;;;9.40;5.80;;;15.30;99.90;;;;;;20331368;29;20047;-41
2024/04/04 12:43:02;;;;;;;11.18;6.97;;;15.80;99.90;;;;;;20346445;29;20445;-42
2024/04/04 12:53:03;;;;;;;9.32;5.65;;;15.90;99.90;;;;;;20319655;29;20091;-40
2024/04/04 13:03:07;;;;;;;9.02;5.47;;;15.70;99.90;;;;;;20335919;29;20083;-40
2024/04/04 13:13:08;;;;;;;4.53;2.63;;;16.20;99.90;;;;;;20328573;29;20031;-41
2024/04/04 13:23:10;;;;;;;6.68;4.72;;;16.50;99.90;;;;;;20325936;29;20048;-41
2024/04/04 13:33:12;;;;;;;7.07;3.63;;;16.00;99.90;;;;;;20334531;29;20040;-40
2024/04/04 13:43:14;;;;;;;6.95;2.90;;;15.30;99.90;;;;;;20333315;29;20512;-40
2024/04/04 13:53:16;;;;;;;7.28;2.72;;;15.80;99.90;;;;;;20331691;29;20032;-41
2024/04/04 14:03:17;;;;;;;6.03;2.28;;;15.80;99.90;;;;;;20338404;29;20032;-40
2024/04/04 14:13:21;;;;;;;5.63;2.47;;;15.80;99.90;;;;;;20306858;29;20040;-41
2024/04/04 14:23:22;;;;;;;8.27;3.25;;;14.60;99.90;;;;;;20333391;29;20044;-41
2024/04/04 14:33:25;;;;;;;8.07;2.85;;;14.10;99.90;;;;;;20288713;29;20396;-40
2024/04/04 14:43:27;;;;;;;8.13;3.38;;;13.60;99.90;;;;;;20243131;29;20404;-39
2024/04/04 14:53:31;;;;;;;7.13;3.80;;;13.00;99.90;;;;;;20292614;29;20036;-39
2024/04/04 15:03:36;;;;;;;9.63;3.97;;;12.30;99.90;;;;;;20333451;29;20040;-39
2024/04/04 15:13:38;;;;;;;9.45;4.72;;;12.20;99.90;;;;;;20246036;29;20112;-41
2024/04/04 15:23:40;;;;;;;9.90;4.60;;;11.60;99.90;;;;;;20321321;29;20068;-39
2024/04/04 15:33:45;;;;;;;8.60;4.28;;;10.90;99.90;;;;;;20333785;29;20040;-39
2024/04/04 15:43:47;;;;;;;10.07;5.20;;;10.60;99.90;;;;;;20332856;29;20043;-39
2024/04/04 15:53:49;;;;;;;12.13;5.85;;;10.50;99.90;;;;;;20333293;29;20068;-39
2024/04/04 16:03:51;;;;;;;15.02;7.50;;;10.30;99.90;;;;;;20334489;29;20047;-39
2024/04/04 16:13:53;;;;;;;11.93;7.10;;;10.00;99.90;;;;;;20344884;29;20103;-39
2024/04/04 16:23:55;;;;;;;11.18;6.40;;;9.70;99.90;;;;;;20350915;29;20048;-38
2024/04/04 16:33:57;;;;;;;10.63;7.05;;;9.40;99.90;;;;;;20347243;29;20383;-39
2024/04/04 16:43:58;;;;;;;16.45;8.77;;;9.10;99.90;;;;;;20348214;29;20100;-39
2024/04/04 16:54:01;;;;;;;11.70;7.00;;;9.10;99.90;;;;;;20348551;29;20091;-39
2024/04/04 17:04:04;;;;;;;17.60;9.55;;;9.00;99.90;;;;;;20347322;29;20055;-39
2024/04/04 17:14:05;;;;;;;17.63;10.48;;;8.70;99.90;;;;;;20346264;29;20068;-38
2024/04/04 17:24:08;;;;;;;16.35;9.10;;;8.40;99.90;;;;;;20313708;29;20052;-38
2024/04/04 17:34:12;;;;;;;20.55;9.63;;;8.30;99.90;;;;;;20345257;29;20040;-38
2024/04/04 17:44:14;;;;;;;20.35;10.15;;;8.30;99.90;;;;;;20403378;29;20044;-39
2024/04/04 17:54:21;;;;;;;15.18;9.13;;;8.20;99.90;;;;;;20393779;29;20103;-39
2024/04/04 18:04:23;;;;;;;20.85;10.65;;;7.80;99.90;;;;;;20404549;29;20036;-38
2024/04/04 18:14:25;;;;;;;24.02;12.43;;;7.10;99.90;;;;;;20403899;29;20043;-38
2024/04/04 18:24:27;;;;;;;22.13;11.63;;;6.90;99.90;;;;;;20386195;29;20044;-38
2024/04/04 18:34:30;;;;;;;20.27;9.93;;;7.00;99.90;;;;;;20340093;29;20108;-37
2024/04/04 18:44:32;;;;;;;19.83;9.38;;;6.60;99.90;;;;;;20339039;29;20052;-38
2024/04/04 18:54:34;;;;;;;19.13;9.43;;;6.30;99.90;;;;;;20339992;29;20036;-39
2024/04/04 19:04:36;;;;;;;19.02;8.98;;;6.10;99.90;;;;;;20338932;29;20032;-38
2024/04/04 19:14:40;;;;;;;14.02;7.68;;;5.70;99.90;;;;;;20417240;29;20040;-38
2024/04/04 19:24:46;;;;;;;15.30;8.52;;;5.60;99.90;;;;;;20416240;29;20048;-38
2024/04/04 19:34:48;;;;;;;20.25;10.90;;;5.50;99.90;;;;;;20398597;29;20099;-38
2024/04/04 19:44:49;;;;;;;15.85;7.82;;;5.40;99.90;;;;;;20420310;29;20079;-38
2024/04/04 19:54:51;;;;;;;12.45;5.78;;;5.50;99.90;;;;;;20403738;29;20032;-38
2024/04/04 20:04:53;;;;;;;14.57;6.05;;;5.90;99.90;;;;;;20428560;29;20051;-39
2024/04/04 20:14:55;;;;;;;14.48;5.90;;;5.70;99.90;;;;;;20429761;29;20075;-38
2024/04/04 20:24:57;;;;;;;12.60;6.30;;;5.50;99.90;;;;;;20391530;29;20087;-38
2024/04/04 20:35:00;;;;;;;12.85;5.70;;;5.60;99.90;;;;;;20354197;29;20036;-38
2024/04/04 20:45:02;;;;;;;8.70;5.32;;;5.70;99.90;;;;;;20427535;29;20480;-37
2024/04/04 20:55:07;;;;;;;10.88;6.78;;;5.20;99.90;;;;;;20352204;29;20479;-38
2024/04/04 21:05:10;;;;;;;13.55;7.55;;;4.80;99.90;;;;;;20352564;29;20047;-37
2024/04/04 21:15:12;;;;;;;13.40;7.50;;;4.70;99.90;;;;;;20405470;29;20039;-37
2024/04/04 21:25:14;;;;;;;13.27;5.90;;;4.60;99.90;;;;;;20345941;29;20052;-39
2024/04/04 21:35:16;;;;;;;12.98;5.40;;;4.50;99.90;;;;;;20350577;29;20098;-37
2024/04/04 21:45:18;;;;;;;8.32;4.35;;;4.60;99.90;;;;;;20423011;29;20044;-38
2024/04/04 21:55:21;;;;;;;8.15;4.78;;;4.40;99.90;;;;;;20347022;29;20036;-38
2024/04/04 22:05:26;;;;;;;12.07;4.47;;;4.20;99.90;;;;;;20349620;29;20047;-37
2024/04/04 22:15:30;;;;;;;8.38;4.22;;;4.20;99.90;;;;;;20361245;29;20032;-39
2024/04/04 22:25:37;;;;;;;9.40;4.68;;;4.00;99.90;;;;;;20389752;29;20269;-37
2024/04/04 22:35:38;;;;;;;8.63;4.03;;;4.00;99.90;;;;;;20418901;29;20082;-37
2024/04/04 22:45:41;;;;;;;7.32;3.75;;;3.90;99.90;;;;;;20382578;29;20044;-38
2024/04/04 22:55:43;;;;;;;7.90;4.43;;;3.90;99.90;;;;;;20388668;29;20047;-37
2024/04/04 23:05:58;;;;;;;6.53;4.30;;;3.70;99.90;;;;;;20416656;29;20091;-38
2024/04/04 23:16:00;;;;;;;7.70;4.00;;;3.70;99.90;;;;;;20416798;29;20083;-38
2024/04/04 23:26:02;;;;;;;10.60;4.03;;;3.70;99.90;;;;;;20416467;29;20048;-38
2024/04/04 23:36:04;;;;;;;9.65;4.05;;;3.70;99.90;;;;;;20398891;29;20049;-38
2024/04/04 23:46:07;;;;;;;9.40;5.30;;;3.50;99.90;;;;;;20413306;29;20043;-38
2024/04/04 23:56:11;;;;;;;11.43;4.10;;;3.50;99.90;;;;;;20389379;29;20027;-38
